Huvudsida
METAR-TAF:

METAR-TAF

Flygplatser :

Guaratinguetá, São Paulo, Brasilien

latitud: 22-47S, longitud: 045-12W, höjd: 537 m

Aktuellt väderrapport

Denna rapport gjordes för 9 timmar och 18 minuter sedan, klockan 21:00 UTC
Vind 3 kt från nordväst
Temperatur 24°C
Fuktighet 44%
Tryck 1013 hPa
Sikt 10 km eller mer
Inga moln under 1 500 m eller inga cumulonimbus

METAR: SBGW 042100Z 32003KT CAVOK 24/11 Q1013

Tid: 03:18 (06:18 UTC)

Väderprognos

Denna rapport gjordes för 9 timmar och 18 minuter sedan, klockan 21:00 UTC
Prognos gäller från 05 kl. 00 UTC till 05 kl. 12 UTC
Vind 7 kt från ost
Sikt 10 km eller mer
Få moln på en höjd av 1500 ft
Blir
från 05 kl. 00 UTC till 05 kl. 02 UTC
Brutna moln på en höjd av 1200 ft
Sannolikhet 40%
från 05 kl. 08 UTC till 05 kl. 11 UTC
Sikt: 2000 m
Brutna moln på en höjd av 600 ft
fuktdis

TAF: SBGW 042100Z 0500/0512 10007KT 9999 FEW015 TN15/0509Z TX20/0512Z BECMG 0500/0502 BKN012 PROB40 0508/0511 2000 BR BKN006 RMK PDJ

Aktuella väderrapporter och prognoser från 4000 flygplatser (METAR- och TAF-rapporter).

De tillgängliga stationerna syns som gula och röda prickar på kartan.

För musen över prickarna för att se namnen på stationerna.

Klicka sedan för att få väderrapporter och prognoser.

För att ändra kartan: Klicka på de gröna knapparna med ett svart kors på för att zooma in; den gröna knappen med ett streck på för att zooma ut; eller på de gröna pilarna för angränsande kartor.


METAR-TAF: